Terminal Aerodrome Forecast
Issued by NWS Wichita, KS

Home | Current Version | Previous Version | Graphics & Text | Print | Product List | Glossary On
Versions: 1 2 3 4 5 6 7 8 9 10 11 12 13 14 15 16 17 18
000
FTUS43 KICT 192235 AAC
TAFICT
TAF AMD
KICT 192235Z 1923/2018 15017G22KT P6SM VCTS SCT025 OVC045CB
      TEMPO 1923/2002 VRB26G35KT 5SM TSRA BKN025CB
     FM200200 25007KT P6SM SCT010 OVC040
     FM200300 34017KT P6SM OVC008
     FM201400 31017G22KT P6SM OVC013=

USA.gov is the U.S. government's official web portal to all federal, state and local government web resources and services.